sensor_id;sensor_type;location;lat;lon;timestamp;pressure;altitude;pressure_sealevel;temperature;humidity
68141;BME280;54941;52.220;104.306;2022-09-04T00:01:54;96776.13;;;7.93;79.07
68141;BME280;54941;52.220;104.306;2022-09-04T00:04:51;96776.72;;;7.80;78.03
68141;BME280;54941;52.220;104.306;2022-09-04T00:07:56;96785.94;;;7.75;78.20
68141;BME280;54941;52.220;104.306;2022-09-04T00:10:48;96780.72;;;7.68;79.33
68141;BME280;54941;52.220;104.306;2022-09-04T00:13:39;96780.00;;;7.74;78.92
68141;BME280;54941;52.220;104.306;2022-09-04T00:16:29;96775.84;;;7.88;78.85
68141;BME280;54941;52.220;104.306;2022-09-04T00:19:26;96768.22;;;7.95;77.33
68141;BME280;54941;52.220;104.306;2022-09-04T00:22:23;96770.34;;;7.91;78.01
68141;BME280;54941;52.220;104.306;2022-09-04T00:25:13;96763.72;;;7.82;78.03
68141;BME280;54941;52.220;104.306;2022-09-04T00:28:05;96766.09;;;7.83;77.79
68141;BME280;54941;52.220;104.306;2022-09-04T00:30:57;96769.00;;;8.10;77.57
68141;BME280;54941;52.220;104.306;2022-09-04T00:33:49;96762.31;;;7.94;76.75
68141;BME280;54941;52.220;104.306;2022-09-04T00:36:41;96764.16;;;8.15;76.40
68141;BME280;54941;52.220;104.306;2022-09-04T00:39:34;96763.63;;;8.19;76.21
68141;BME280;54941;52.220;104.306;2022-09-04T00:42:39;96763.34;;;8.29;75.57
68141;BME280;54941;52.220;104.306;2022-09-04T00:45:38;96760.13;;;8.42;75.07
68141;BME280;54941;52.220;104.306;2022-09-04T00:51:55;96760.97;;;8.63;73.96
68141;BME280;54941;52.220;104.306;2022-09-04T00:54:55;96759.31;;;8.77;73.58
68141;BME280;54941;52.220;104.306;2022-09-04T00:58:11;96761.22;;;8.90;73.15
68141;BME280;54941;52.220;104.306;2022-09-04T01:00:59;96756.34;;;8.80;73.14
68141;BME280;54941;52.220;104.306;2022-09-04T01:07:26;96743.69;;;9.00;72.71
68141;BME280;54941;52.220;104.306;2022-09-04T01:10:25;96738.28;;;9.16;72.29
68141;BME280;54941;52.220;104.306;2022-09-04T01:13:18;96738.03;;;9.39;71.14
68141;BME280;54941;52.220;104.306;2022-09-04T01:16:08;96724.88;;;9.89;69.82
68141;BME280;54941;52.220;104.306;2022-09-04T01:18:59;96734.13;;;10.24;67.92
68141;BME280;54941;52.220;104.306;2022-09-04T01:22:08;96728.81;;;10.33;67.54
68141;BME280;54941;52.220;104.306;2022-09-04T01:25:04;96728.69;;;10.60;65.75
68141;BME280;54941;52.220;104.306;2022-09-04T01:28:01;96733.78;;;10.34;66.81
68141;BME280;54941;52.220;104.306;2022-09-04T01:30:51;96730.06;;;10.02;67.28
68141;BME280;54941;52.220;104.306;2022-09-04T01:33:47;96735.03;;;9.63;68.74
68141;BME280;54941;52.220;104.306;2022-09-04T01:36:40;96729.22;;;9.54;68.52
68141;BME280;54941;52.220;104.306;2022-09-04T01:39:32;96735.63;;;9.65;69.21
68141;BME280;54941;52.220;104.306;2022-09-04T01:42:26;96739.69;;;9.81;68.19
68141;BME280;54941;52.220;104.306;2022-09-04T01:45:23;96732.91;;;9.73;69.00
68141;BME280;54941;52.220;104.306;2022-09-04T01:48:16;96729.44;;;9.53;69.04
68141;BME280;54941;52.220;104.306;2022-09-04T01:51:13;96731.69;;;9.35;69.26
68141;BME280;54941;52.220;104.306;2022-09-04T01:54:18;96724.22;;;9.46;70.00
68141;BME280;54941;52.220;104.306;2022-09-04T01:57:14;96726.16;;;9.10;70.26
68141;BME280;54941;52.220;104.306;2022-09-04T02:00:06;96731.81;;;8.99;70.69
68141;BME280;54941;52.220;104.306;2022-09-04T02:02:59;96729.94;;;8.86;72.44
68141;BME280;54941;52.220;104.306;2022-09-04T02:05:55;96722.66;;;8.90;74.39
68141;BME280;54941;52.220;104.306;2022-09-04T02:08:55;96725.22;;;8.90;74.00
68141;BME280;54941;52.220;104.306;2022-09-04T02:11:47;96721.44;;;8.64;75.32
68141;BME280;54941;52.220;104.306;2022-09-04T02:14:40;96716.00;;;8.53;76.64
68141;BME280;54941;52.220;104.306;2022-09-04T02:17:34;96715.25;;;8.38;76.81
68141;BME280;54941;52.220;104.306;2022-09-04T02:20:26;96721.13;;;8.53;77.10
68141;BME280;54941;52.220;104.306;2022-09-04T02:23:14;96721.63;;;8.63;78.02
68141;BME280;54941;52.220;104.306;2022-09-04T02:26:06;96728.59;;;8.69;76.70
68141;BME280;54941;52.220;104.306;2022-09-04T02:28:57;96729.25;;;8.77;76.97
68141;BME280;54941;52.220;104.306;2022-09-04T02:31:53;96715.97;;;8.95;76.45
68141;BME280;54941;52.220;104.306;2022-09-04T02:34:49;96717.97;;;9.00;77.06
68141;BME280;54941;52.220;104.306;2022-09-04T02:37:50;96711.94;;;9.14;77.92
68141;BME280;54941;52.220;104.306;2022-09-04T02:41:05;96718.25;;;9.39;78.02
68141;BME280;54941;52.220;104.306;2022-09-04T02:44:10;96715.47;;;9.34;77.60
68141;BME280;54941;52.220;104.306;2022-09-04T02:47:12;96707.16;;;9.39;76.76
68141;BME280;54941;52.220;104.306;2022-09-04T02:50:09;96699.03;;;9.35;74.65
68141;BME280;54941;52.220;104.306;2022-09-04T02:53:09;96702.69;;;9.88;73.98
68141;BME280;54941;52.220;104.306;2022-09-04T02:56:12;96699.00;;;10.10;71.85
68141;BME280;54941;52.220;104.306;2022-09-04T02:59:15;96694.81;;;10.03;72.00
68141;BME280;54941;52.220;104.306;2022-09-04T03:02:07;96699.81;;;10.11;71.03
68141;BME280;54941;52.220;104.306;2022-09-04T03:05:03;96692.06;;;10.04;70.01
68141;BME280;54941;52.220;104.306;2022-09-04T03:08:01;96685.69;;;9.94;70.73
68141;BME280;54941;52.220;104.306;2022-09-04T03:10:53;96685.88;;;9.92;71.34
68141;BME280;54941;52.220;104.306;2022-09-04T03:13:47;96679.25;;;9.76;69.29
68141;BME280;54941;52.220;104.306;2022-09-04T03:16:38;96684.63;;;9.82;68.75
68141;BME280;54941;52.220;104.306;2022-09-04T03:19:28;96677.59;;;9.56;69.58
68141;BME280;54941;52.220;104.306;2022-09-04T03:22:22;96673.28;;;9.69;69.25
68141;BME280;54941;52.220;104.306;2022-09-04T03:25:32;96679.75;;;9.93;70.09
68141;BME280;54941;52.220;104.306;2022-09-04T03:28:30;96677.56;;;9.90;69.78
68141;BME280;54941;52.220;104.306;2022-09-04T03:31:27;96678.78;;;10.01;70.40
68141;BME280;54941;52.220;104.306;2022-09-04T03:34:29;96678.16;;;10.05;68.82
68141;BME280;54941;52.220;104.306;2022-09-04T03:37:47;96673.91;;;10.25;66.72
68141;BME280;54941;52.220;104.306;2022-09-04T03:40:40;96667.56;;;10.28;64.42
68141;BME280;54941;52.220;104.306;2022-09-04T03:46:45;96666.91;;;10.13;65.84
68141;BME280;54941;52.220;104.306;2022-09-04T03:49:41;96671.34;;;9.78;66.12
68141;BME280;54941;52.220;104.306;2022-09-04T03:52:35;96663.22;;;9.74;66.63
68141;BME280;54941;52.220;104.306;2022-09-04T03:55:37;96659.53;;;9.97;66.42
68141;BME280;54941;52.220;104.306;2022-09-04T03:58:30;96659.88;;;10.54;66.66
68141;BME280;54941;52.220;104.306;2022-09-04T04:01:22;96652.91;;;11.34;63.30
68141;BME280;54941;52.220;104.306;2022-09-04T04:04:32;96642.16;;;12.01;60.51
68141;BME280;54941;52.220;104.306;2022-09-04T04:07:26;96647.72;;;12.60;58.32
68141;BME280;54941;52.220;104.306;2022-09-04T04:10:19;96638.03;;;11.93;59.44
68141;BME280;54941;52.220;104.306;2022-09-04T04:13:34;96647.28;;;11.56;62.07
68141;BME280;54941;52.220;104.306;2022-09-04T04:16:30;96661.28;;;10.63;68.70
68141;BME280;54941;52.220;104.306;2022-09-04T04:19:39;96655.72;;;10.60;71.84
68141;BME280;54941;52.220;104.306;2022-09-04T04:22:47;96646.03;;;11.65;69.98
68141;BME280;54941;52.220;104.306;2022-09-04T04:25:56;96633.47;;;12.20;67.89
68141;BME280;54941;52.220;104.306;2022-09-04T04:29:10;96623.44;;;12.37;65.06
68141;BME280;54941;52.220;104.306;2022-09-04T04:32:13;96629.09;;;13.01;65.71
68141;BME280;54941;52.220;104.306;2022-09-04T04:35:13;96625.03;;;12.06;64.27
68141;BME280;54941;52.220;104.306;2022-09-04T04:38:16;96636.84;;;11.18;66.14
68141;BME280;54941;52.220;104.306;2022-09-04T04:41:29;96653.13;;;10.40;70.64
68141;BME280;54941;52.220;104.306;2022-09-04T04:44:23;96658.41;;;9.24;74.91
68141;BME280;54941;52.220;104.306;2022-09-04T04:47:16;96646.59;;;8.74;79.11
68141;BME280;54941;52.220;104.306;2022-09-04T04:50:12;96637.69;;;8.70;80.88
68141;BME280;54941;52.220;104.306;2022-09-04T04:53:01;96636.91;;;8.97;80.29
68141;BME280;54941;52.220;104.306;2022-09-04T04:55:53;96648.53;;;9.27;78.61
68141;BME280;54941;52.220;104.306;2022-09-04T04:58:53;96645.88;;;9.42;76.73
68141;BME280;54941;52.220;104.306;2022-09-04T05:01:51;96640.38;;;9.58;76.77
68141;BME280;54941;52.220;104.306;2022-09-04T05:04:44;96623.03;;;9.80;76.60
68141;BME280;54941;52.220;104.306;2022-09-04T05:07:39;96623.41;;;10.44;77.56
68141;BME280;54941;52.220;104.306;2022-09-04T05:10:30;96612.47;;;10.88;75.39
68141;BME280;54941;52.220;104.306;2022-09-04T05:13:22;96607.50;;;11.00;73.04
68141;BME280;54941;52.220;104.306;2022-09-04T05:16:16;96607.13;;;11.60;71.12
68141;BME280;54941;52.220;104.306;2022-09-04T05:19:13;96601.34;;;11.65;70.44
68141;BME280;54941;52.220;104.306;2022-09-04T05:22:12;96597.25;;;11.95;70.01
68141;BME280;54941;52.220;104.306;2022-09-04T05:25:01;96594.78;;;12.38;66.20
68141;BME280;54941;52.220;104.306;2022-09-04T05:28:04;96597.22;;;12.02;66.74
68141;BME280;54941;52.220;104.306;2022-09-04T05:31:03;96589.78;;;11.81;67.92
68141;BME280;54941;52.220;104.306;2022-09-04T05:33:57;96589.09;;;11.54;68.08
68141;BME280;54941;52.220;104.306;2022-09-04T05:36:57;96586.63;;;11.79;65.98
68141;BME280;54941;52.220;104.306;2022-09-04T05:39:55;96584.13;;;12.28;63.14
68141;BME280;54941;52.220;104.306;2022-09-04T05:43:03;96574.75;;;12.34;61.45
68141;BME280;54941;52.220;104.306;2022-09-04T05:45:59;96579.59;;;12.73;62.53
68141;BME280;54941;52.220;104.306;2022-09-04T05:48:54;96575.13;;;12.37;60.48
68141;BME280;54941;52.220;104.306;2022-09-04T05:52:08;96593.03;;;12.63;61.78
68141;BME280;54941;52.220;104.306;2022-09-04T05:55:22;96597.84;;;11.53;64.22
68141;BME280;54941;52.220;104.306;2022-09-04T05:58:37;96601.28;;;11.34;64.91
68141;BME280;54941;52.220;104.306;2022-09-04T06:01:49;96602.34;;;11.06;68.20
68141;BME280;54941;52.220;104.306;2022-09-04T06:04:59;96602.75;;;10.90;68.59
68141;BME280;54941;52.220;104.306;2022-09-04T06:07:58;96592.84;;;10.81;70.97
68141;BME280;54941;52.220;104.306;2022-09-04T06:10:56;96589.47;;;10.80;71.93
68141;BME280;54941;52.220;104.306;2022-09-04T06:14:03;96596.59;;;10.98;70.73
68141;BME280;54941;52.220;104.306;2022-09-04T06:17:06;96588.50;;;11.52;72.00
68141;BME280;54941;52.220;104.306;2022-09-04T06:20:10;96584.50;;;11.62;70.74
68141;BME280;54941;52.220;104.306;2022-09-04T06:23:13;96576.31;;;11.65;71.06
68141;BME280;54941;52.220;104.306;2022-09-04T06:26:14;96575.34;;;11.66;69.66
68141;BME280;54941;52.220;104.306;2022-09-04T06:29:25;96572.00;;;11.59;69.31
68141;BME280;54941;52.220;104.306;2022-09-04T06:32:37;96560.81;;;11.72;67.19
68141;BME280;54941;52.220;104.306;2022-09-04T06:38:59;96550.22;;;12.43;62.98
68141;BME280;54941;52.220;104.306;2022-09-04T06:41:59;96541.31;;;12.39;61.00
68141;BME280;54941;52.220;104.306;2022-09-04T06:45:00;96536.03;;;12.27;61.56
68141;BME280;54941;52.220;104.306;2022-09-04T06:48:02;96536.06;;;12.45;59.25
68141;BME280;54941;52.220;104.306;2022-09-04T06:50:56;96529.28;;;12.51;59.39
68141;BME280;54941;52.220;104.306;2022-09-04T06:53:54;96519.22;;;12.61;61.67
68141;BME280;54941;52.220;104.306;2022-09-04T06:57:08;96523.38;;;12.19;60.46
68141;BME280;54941;52.220;104.306;2022-09-04T07:00:06;96514.97;;;12.24;60.58
68141;BME280;54941;52.220;104.306;2022-09-04T07:03:10;96518.03;;;12.14;59.47
68141;BME280;54941;52.220;104.306;2022-09-04T07:06:02;96521.91;;;11.74;59.40
68141;BME280;54941;52.220;104.306;2022-09-04T07:09:01;96521.94;;;11.60;60.23
68141;BME280;54941;52.220;104.306;2022-09-04T07:12:13;96523.09;;;11.64;60.14
68141;BME280;54941;52.220;104.306;2022-09-04T07:15:39;96523.38;;;11.50;61.41
68141;BME280;54941;52.220;104.306;2022-09-04T07:18:42;96547.47;;;11.37;63.00
68141;BME280;54941;52.220;104.306;2022-09-04T07:21:43;96539.72;;;10.73;65.22
68141;BME280;54941;52.220;104.306;2022-09-04T07:24:46;96547.44;;;10.73;65.45
68141;BME280;54941;52.220;104.306;2022-09-04T07:27:47;96541.94;;;10.56;66.42
68141;BME280;54941;52.220;104.306;2022-09-04T07:30:41;96517.88;;;10.89;66.14
68141;BME280;54941;52.220;104.306;2022-09-04T07:33:35;96535.75;;;10.70;66.50
68141;BME280;54941;52.220;104.306;2022-09-04T07:36:27;96531.56;;;10.89;66.95
68141;BME280;54941;52.220;104.306;2022-09-04T07:39:22;96529.78;;;10.90;66.07
68141;BME280;54941;52.220;104.306;2022-09-04T07:42:13;96536.53;;;11.42;64.29
68141;BME280;54941;52.220;104.306;2022-09-04T07:45:03;96525.94;;;11.12;64.93
68141;BME280;54941;52.220;104.306;2022-09-04T07:47:58;96532.19;;;11.36;63.72
68141;BME280;54941;52.220;104.306;2022-09-04T07:50:57;96522.03;;;11.41;63.87
68141;BME280;54941;52.220;104.306;2022-09-04T07:53:55;96520.31;;;11.28;63.62
68141;BME280;54941;52.220;104.306;2022-09-04T07:57:08;96528.47;;;11.63;62.69
68141;BME280;54941;52.220;104.306;2022-09-04T08:00:05;96520.44;;;11.84;63.69
68141;BME280;54941;52.220;104.306;2022-09-04T08:03:02;96512.00;;;11.64;64.79
68141;BME280;54941;52.220;104.306;2022-09-04T08:05:58;96512.94;;;11.69;65.45
68141;BME280;54941;52.220;104.306;2022-09-04T08:09:10;96500.69;;;11.58;66.15
68141;BME280;54941;52.220;104.306;2022-09-04T08:12:24;96498.88;;;11.65;65.14
68141;BME280;54941;52.220;104.306;2022-09-04T08:15:16;96500.25;;;11.75;65.93
68141;BME280;54941;52.220;104.306;2022-09-04T08:18:22;96503.94;;;11.85;66.07
68141;BME280;54941;52.220;104.306;2022-09-04T08:21:21;96497.44;;;11.76;66.62
68141;BME280;54941;52.220;104.306;2022-09-04T08:24:47;96488.66;;;11.84;65.33
68141;BME280;54941;52.220;104.306;2022-09-04T08:27:59;96491.41;;;11.51;63.30
68141;BME280;54941;52.220;104.306;2022-09-04T08:30:53;96482.53;;;11.78;61.19
68141;BME280;54941;52.220;104.306;2022-09-04T08:34:05;96495.59;;;12.14;58.90
68141;BME280;54941;52.220;104.306;2022-09-04T08:37:01;96487.47;;;12.11;58.42
68141;BME280;54941;52.220;104.306;2022-09-04T08:40:01;96484.09;;;11.86;58.42
68141;BME280;54941;52.220;104.306;2022-09-04T08:43:09;96479.66;;;11.93;58.42
68141;BME280;54941;52.220;104.306;2022-09-04T08:46:21;96473.59;;;11.81;58.65
68141;BME280;54941;52.220;104.306;2022-09-04T08:56:06;96466.56;;;11.88;59.05
68141;BME280;54941;52.220;104.306;2022-09-04T08:59:40;96473.09;;;11.90;58.57
68141;BME280;54941;52.220;104.306;2022-09-04T09:06:36;96466.19;;;11.53;58.68
68141;BME280;54941;52.220;104.306;2022-09-04T09:10:02;96478.13;;;11.47;59.25
68141;BME280;54941;52.220;104.306;2022-09-04T09:13:14;96478.56;;;11.76;59.60
68141;BME280;54941;52.220;104.306;2022-09-04T09:16:18;96489.53;;;11.64;60.06
68141;BME280;54941;52.220;104.306;2022-09-04T09:19:18;96482.56;;;11.71;59.53
68141;BME280;54941;52.220;104.306;2022-09-04T09:22:09;96474.81;;;11.71;58.38
68141;BME280;54941;52.220;104.306;2022-09-04T09:25:17;96478.09;;;11.54;59.01
68141;BME280;54941;52.220;104.306;2022-09-04T09:28:40;96479.84;;;11.60;59.94
68141;BME280;54941;52.220;104.306;2022-09-04T09:32:10;96477.19;;;11.35;59.14
68141;BME280;54941;52.220;104.306;2022-09-04T09:39:12;96455.66;;;11.16;60.45
68141;BME280;54941;52.220;104.306;2022-09-04T09:42:30;96462.28;;;10.99;61.63
68141;BME280;54941;52.220;104.306;2022-09-04T09:45:46;96470.25;;;10.91;61.69
68141;BME280;54941;52.220;104.306;2022-09-04T09:55:59;96468.09;;;10.88;61.79
68141;BME280;54941;52.220;104.306;2022-09-04T10:02:30;96468.81;;;11.02;62.11
68141;BME280;54941;52.220;104.306;2022-09-04T10:05:48;96459.72;;;10.99;61.94
68141;BME280;54941;52.220;104.306;2022-09-04T10:12:22;96457.75;;;10.95;61.90
68141;BME280;54941;52.220;104.306;2022-09-04T10:18:56;96453.19;;;10.90;62.99
68141;BME280;54941;52.220;104.306;2022-09-04T10:22:13;96459.78;;;10.86;64.14
68141;BME280;54941;52.220;104.306;2022-09-04T10:29:06;96457.19;;;10.80;63.10
68141;BME280;54941;52.220;104.306;2022-09-04T10:35:21;96440.94;;;10.79;62.61
68141;BME280;54941;52.220;104.306;2022-09-04T10:38:31;96446.50;;;10.83;62.61
68141;BME280;54941;52.220;104.306;2022-09-04T10:41:38;96442.31;;;10.82;61.88
68141;BME280;54941;52.220;104.306;2022-09-04T10:54:30;96444.69;;;10.83;62.63
68141;BME280;54941;52.220;104.306;2022-09-04T10:57:47;96443.94;;;10.69;62.33
68141;BME280;54941;52.220;104.306;2022-09-04T11:00:46;96445.78;;;10.56;62.48
68141;BME280;54941;52.220;104.306;2022-09-04T11:04:13;96447.97;;;10.39;63.63
68141;BME280;54941;52.220;104.306;2022-09-04T11:07:15;96443.66;;;10.27;63.76
68141;BME280;54941;52.220;104.306;2022-09-04T11:10:23;96444.44;;;10.14;64.51
68141;BME280;54941;52.220;104.306;2022-09-04T11:13:55;96442.47;;;10.03;65.16
68141;BME280;54941;52.220;104.306;2022-09-04T11:30:15;96438.91;;;9.64;66.83
68141;BME280;54941;52.220;104.306;2022-09-04T11:37:00;96444.03;;;9.45;68.25
68141;BME280;54941;52.220;104.306;2022-09-04T11:40:36;96443.56;;;9.28;69.64
68141;BME280;54941;52.220;104.306;2022-09-04T11:47:12;96439.34;;;8.94;73.00
68141;BME280;54941;52.220;104.306;2022-09-04T11:50:14;96439.03;;;8.76;74.12
68141;BME280;54941;52.220;104.306;2022-09-04T11:53:43;96444.91;;;8.57;76.08
68141;BME280;54941;52.220;104.306;2022-09-04T11:56:42;96434.69;;;8.36;77.25
68141;BME280;54941;52.220;104.306;2022-09-04T12:03:05;96427.59;;;7.82;79.98
68141;BME280;54941;52.220;104.306;2022-09-04T12:06:16;96435.94;;;7.63;81.37
68141;BME280;54941;52.220;104.306;2022-09-04T12:09:33;96425.84;;;7.40;83.00
68141;BME280;54941;52.220;104.306;2022-09-04T12:12:46;96433.66;;;7.32;83.54
68141;BME280;54941;52.220;104.306;2022-09-04T12:16:03;96423.91;;;7.21;83.41
68141;BME280;54941;52.220;104.306;2022-09-04T12:23:01;96412.88;;;7.20;82.52
68141;BME280;54941;52.220;104.306;2022-09-04T12:26:41;96416.78;;;7.16;83.71
68141;BME280;54941;52.220;104.306;2022-09-04T12:30:04;96412.94;;;7.06;83.54
68141;BME280;54941;52.220;104.306;2022-09-04T12:33:37;96416.19;;;7.00;84.01
68141;BME280;54941;52.220;104.306;2022-09-04T12:37:08;96416.81;;;7.02;84.43
68141;BME280;54941;52.220;104.306;2022-09-04T12:40:31;96415.75;;;6.96;84.81
68141;BME280;54941;52.220;104.306;2022-09-04T12:43:31;96418.34;;;6.81;85.16
68141;BME280;54941;52.220;104.306;2022-09-04T12:46:29;96421.97;;;6.87;85.62
68141;BME280;54941;52.220;104.306;2022-09-04T12:49:41;96426.13;;;6.73;85.94
68141;BME280;54941;52.220;104.306;2022-09-04T12:52:43;96423.31;;;6.83;86.13
68141;BME280;54941;52.220;104.306;2022-09-04T12:55:37;96424.47;;;6.66;86.34
68141;BME280;54941;52.220;104.306;2022-09-04T12:58:43;96425.56;;;6.57;87.06
68141;BME280;54941;52.220;104.306;2022-09-04T13:01:40;96415.94;;;6.44;88.04
68141;BME280;54941;52.220;104.306;2022-09-04T13:04:34;96425.72;;;6.26;89.47
68141;BME280;54941;52.220;104.306;2022-09-04T13:07:32;96427.41;;;6.19;89.85
68141;BME280;54941;52.220;104.306;2022-09-04T13:10:25;96429.53;;;6.15;89.79
68141;BME280;54941;52.220;104.306;2022-09-04T13:13:20;96425.44;;;6.06;90.42
68141;BME280;54941;52.220;104.306;2022-09-04T13:16:17;96419.19;;;5.94;90.47
68141;BME280;54941;52.220;104.306;2022-09-04T13:19:13;96419.59;;;5.83;91.35
68141;BME280;54941;52.220;104.306;2022-09-04T13:22:12;96413.81;;;5.66;90.98
68141;BME280;54941;52.220;104.306;2022-09-04T13:25:09;96424.66;;;5.68;91.93
68141;BME280;54941;52.220;104.306;2022-09-04T13:28:13;96419.63;;;5.60;91.78
68141;BME280;54941;52.220;104.306;2022-09-04T13:31:18;96416.25;;;5.60;92.18
68141;BME280;54941;52.220;104.306;2022-09-04T13:34:14;96413.41;;;5.55;91.80
68141;BME280;54941;52.220;104.306;2022-09-04T13:37:05;96407.59;;;5.46;92.86
68141;BME280;54941;52.220;104.306;2022-09-04T13:40:12;96408.59;;;5.60;92.57
68141;BME280;54941;52.220;104.306;2022-09-04T13:43:19;96413.88;;;5.58;92.79
68141;BME280;54941;52.220;104.306;2022-09-04T13:46:12;96413.44;;;5.69;92.24
68141;BME280;54941;52.220;104.306;2022-09-04T13:49:04;96414.88;;;5.72;92.02
68141;BME280;54941;52.220;104.306;2022-09-04T13:51:53;96403.66;;;5.73;91.90
68141;BME280;54941;52.220;104.306;2022-09-04T13:54:47;96404.97;;;5.54;92.12
68141;BME280;54941;52.220;104.306;2022-09-04T13:57:37;96398.84;;;5.40;92.64
68141;BME280;54941;52.220;104.306;2022-09-04T14:00:24;96389.34;;;5.49;92.73
68141;BME280;54941;52.220;104.306;2022-09-04T14:03:13;96394.41;;;5.57;92.94
68141;BME280;54941;52.220;104.306;2022-09-04T14:06:01;96391.16;;;5.63;92.92
68141;BME280;54941;52.220;104.306;2022-09-04T14:08:49;96392.06;;;5.85;92.48
68141;BME280;54941;52.220;104.306;2022-09-04T14:15:22;96397.84;;;6.02;92.03
68141;BME280;54941;52.220;104.306;2022-09-04T14:21:36;96389.75;;;6.27;90.44
68141;BME280;54941;52.220;104.306;2022-09-04T14:24:30;96391.31;;;6.28;89.77
68141;BME280;54941;52.220;104.306;2022-09-04T14:27:26;96394.31;;;6.17;90.13
68141;BME280;54941;52.220;104.306;2022-09-04T14:30:16;96401.00;;;6.04;90.84
68141;BME280;54941;52.220;104.306;2022-09-04T14:33:15;96397.06;;;6.01;91.15
68141;BME280;54941;52.220;104.306;2022-09-04T14:36:17;96396.63;;;5.75;90.83
68141;BME280;54941;52.220;104.306;2022-09-04T14:39:25;96392.19;;;5.54;92.12
68141;BME280;54941;52.220;104.306;2022-09-04T14:42:23;96395.25;;;5.50;92.79
68141;BME280;54941;52.220;104.306;2022-09-04T14:45:27;96400.31;;;5.58;92.81
68141;BME280;54941;52.220;104.306;2022-09-04T14:48:14;96394.16;;;5.67;93.03
68141;BME280;54941;52.220;104.306;2022-09-04T14:51:13;96393.16;;;5.53;93.08
68141;BME280;54941;52.220;104.306;2022-09-04T14:54:00;96389.91;;;5.36;92.96
68141;BME280;54941;52.220;104.306;2022-09-04T14:56:48;96398.13;;;5.32;93.31
68141;BME280;54941;52.220;104.306;2022-09-04T14:59:36;96382.78;;;5.32;93.81
68141;BME280;54941;52.220;104.306;2022-09-04T15:02:27;96395.81;;;5.37;93.55
68141;BME280;54941;52.220;104.306;2022-09-04T15:05:22;96379.34;;;5.39;93.28
68141;BME280;54941;52.220;104.306;2022-09-04T15:08:08;96384.69;;;5.30;92.67
68141;BME280;54941;52.220;104.306;2022-09-04T15:10:57;96374.59;;;5.14;93.45
68141;BME280;54941;52.220;104.306;2022-09-04T15:13:49;96372.56;;;5.09;93.76
68141;BME280;54941;52.220;104.306;2022-09-04T15:16:45;96371.09;;;5.15;94.24
68141;BME280;54941;52.220;104.306;2022-09-04T15:19:43;96374.09;;;5.18;94.37
68141;BME280;54941;52.220;104.306;2022-09-04T15:22:35;96369.03;;;5.10;93.02
68141;BME280;54941;52.220;104.306;2022-09-04T15:25:48;96364.91;;;5.09;93.63
68141;BME280;54941;52.220;104.306;2022-09-04T15:28:40;96363.38;;;5.00;93.35
68141;BME280;54941;52.220;104.306;2022-09-04T15:31:32;96359.59;;;4.88;93.98
68141;BME280;54941;52.220;104.306;2022-09-04T15:34:20;96358.94;;;4.94;94.14
68141;BME280;54941;52.220;104.306;2022-09-04T15:37:13;96354.09;;;4.99;93.94
68141;BME280;54941;52.220;104.306;2022-09-04T15:40:03;96364.00;;;5.02;93.57
68141;BME280;54941;52.220;104.306;2022-09-04T15:42:56;96363.66;;;5.05;93.43
68141;BME280;54941;52.220;104.306;2022-09-04T15:45:47;96357.34;;;4.93;93.56
68141;BME280;54941;52.220;104.306;2022-09-04T15:48:45;96348.72;;;4.71;93.76
68141;BME280;54941;52.220;104.306;2022-09-04T15:51:39;96353.81;;;4.71;94.41
68141;BME280;54941;52.220;104.306;2022-09-04T15:54:30;96348.47;;;4.81;94.41
68141;BME280;54941;52.220;104.306;2022-09-04T15:57:18;96356.13;;;4.81;94.30
68141;BME280;54941;52.220;104.306;2022-09-04T16:00:08;96354.91;;;5.00;94.66
68141;BME280;54941;52.220;104.306;2022-09-04T16:02:59;96354.00;;;5.15;93.69
68141;BME280;54941;52.220;104.306;2022-09-04T16:05:50;96351.53;;;5.22;93.21
68141;BME280;54941;52.220;104.306;2022-09-04T16:08:42;96348.72;;;5.17;92.82
68141;BME280;54941;52.220;104.306;2022-09-04T16:11:30;96354.91;;;5.22;93.29
68141;BME280;54941;52.220;104.306;2022-09-04T16:14:20;96360.41;;;5.34;92.74
68141;BME280;54941;52.220;104.306;2022-09-04T16:17:11;96349.09;;;5.28;92.34
68141;BME280;54941;52.220;104.306;2022-09-04T16:20:02;96346.97;;;5.17;92.19
68141;BME280;54941;52.220;104.306;2022-09-04T16:22:53;96347.59;;;4.97;92.43
68141;BME280;54941;52.220;104.306;2022-09-04T16:25:42;96341.75;;;4.65;93.20
68141;BME280;54941;52.220;104.306;2022-09-04T16:28:30;96340.53;;;4.53;94.09
68141;BME280;54941;52.220;104.306;2022-09-04T16:31:23;96337.41;;;4.43;95.04
68141;BME280;54941;52.220;104.306;2022-09-04T16:34:21;96332.56;;;4.48;95.16
68141;BME280;54941;52.220;104.306;2022-09-04T16:37:10;96337.53;;;4.41;95.09
68141;BME280;54941;52.220;104.306;2022-09-04T16:40:19;96337.06;;;4.46;94.73
68141;BME280;54941;52.220;104.306;2022-09-04T16:43:15;96333.91;;;4.36;95.03
68141;BME280;54941;52.220;104.306;2022-09-04T16:46:08;96329.28;;;4.39;94.41
68141;BME280;54941;52.220;104.306;2022-09-04T16:49:01;96330.03;;;4.40;95.01
68141;BME280;54941;52.220;104.306;2022-09-04T16:51:50;96328.25;;;4.49;95.56
68141;BME280;54941;52.220;104.306;2022-09-04T16:54:43;96325.56;;;4.50;95.64
68141;BME280;54941;52.220;104.306;2022-09-04T16:57:35;96327.13;;;4.51;95.22
68141;BME280;54941;52.220;104.306;2022-09-04T17:00:22;96326.84;;;4.46;94.60
68141;BME280;54941;52.220;104.306;2022-09-04T17:03:16;96318.38;;;4.46;94.49
68141;BME280;54941;52.220;104.306;2022-09-04T17:06:06;96320.41;;;4.27;94.80
68141;BME280;54941;52.220;104.306;2022-09-04T17:09:04;96319.81;;;4.17;95.34
68141;BME280;54941;52.220;104.306;2022-09-04T17:11:56;96308.38;;;4.05;95.42